sensor_id;sensor_type;location;lat;lon;timestamp;pressure;altitude;pressure_sealevel;temperature
67822;BMP180;54434;50.096;20.082;2022-09-09T00:01:03;98526.80;;;17.70
67822;BMP180;54434;50.096;20.082;2022-09-09T00:03:49;98528.80;;;17.70
67822;BMP180;54434;50.096;20.082;2022-09-09T00:06:32;98529.00;;;17.70
67822;BMP180;54434;50.096;20.082;2022-09-09T00:09:17;98533.40;;;17.70
67822;BMP180;54434;50.096;20.082;2022-09-09T00:12:03;98543.80;;;17.68
67822;BMP180;54434;50.096;20.082;2022-09-09T00:14:52;98545.00;;;17.62
67822;BMP180;54434;50.096;20.082;2022-09-09T00:17:41;98539.20;;;17.60
67822;BMP180;54434;50.096;20.082;2022-09-09T00:20:26;98535.00;;;17.60
67822;BMP180;54434;50.096;20.082;2022-09-09T00:23:23;98539.40;;;17.60
67822;BMP180;54434;50.096;20.082;2022-09-09T00:26:10;98545.40;;;17.60
67822;BMP180;54434;50.096;20.082;2022-09-09T00:29:00;98539.40;;;17.60
67822;BMP180;54434;50.096;20.082;2022-09-09T00:31:40;98535.00;;;17.60
67822;BMP180;54434;50.096;20.082;2022-09-09T00:34:23;98539.20;;;17.60
67822;BMP180;54434;50.096;20.082;2022-09-09T00:37:01;98538.20;;;17.60
67822;BMP180;54434;50.096;20.082;2022-09-09T00:39:44;98535.60;;;17.50
67822;BMP180;54434;50.096;20.082;2022-09-09T00:42:30;98531.60;;;17.50
67822;BMP180;54434;50.096;20.082;2022-09-09T00:45:41;98536.00;;;17.50
67822;BMP180;54434;50.096;20.082;2022-09-09T00:48:31;98539.20;;;17.50
67822;BMP180;54434;50.096;20.082;2022-09-09T00:51:15;98539.80;;;17.48
67822;BMP180;54434;50.096;20.082;2022-09-09T00:54:18;98542.20;;;17.40
67822;BMP180;54434;50.096;20.082;2022-09-09T00:57:17;98545.20;;;17.40
67822;BMP180;54434;50.096;20.082;2022-09-09T01:00:16;98554.00;;;17.40
67822;BMP180;54434;50.096;20.082;2022-09-09T01:03:19;98555.00;;;17.40
67822;BMP180;54434;50.096;20.082;2022-09-09T01:06:17;98554.80;;;17.32
67822;BMP180;54434;50.096;20.082;2022-09-09T01:09:21;98553.40;;;17.30
67822;BMP180;54434;50.096;20.082;2022-09-09T01:12:07;98556.00;;;17.30
67822;BMP180;54434;50.096;20.082;2022-09-09T01:14:52;98554.20;;;17.30
67822;BMP180;54434;50.096;20.082;2022-09-09T01:17:44;98560.20;;;17.30
67822;BMP180;54434;50.096;20.082;2022-09-09T01:20:28;98566.60;;;17.30
67822;BMP180;54434;50.096;20.082;2022-09-09T01:23:48;98570.60;;;17.30
67822;BMP180;54434;50.096;20.082;2022-09-09T01:26:34;98571.20;;;17.30
67822;BMP180;54434;50.096;20.082;2022-09-09T01:29:18;98572.40;;;17.30
67822;BMP180;54434;50.096;20.082;2022-09-09T01:32:00;98572.00;;;17.30
67822;BMP180;54434;50.096;20.082;2022-09-09T01:34:41;98569.60;;;17.30
67822;BMP180;54434;50.096;20.082;2022-09-09T01:37:17;98574.60;;;17.20
67822;BMP180;54434;50.096;20.082;2022-09-09T01:39:54;98575.20;;;17.20
67822;BMP180;54434;50.096;20.082;2022-09-09T01:42:30;98584.60;;;17.20
67822;BMP180;54434;50.096;20.082;2022-09-09T01:45:09;98587.40;;;17.20
67822;BMP180;54434;50.096;20.082;2022-09-09T01:47:45;98585.60;;;17.20
67822;BMP180;54434;50.096;20.082;2022-09-09T01:50:32;98592.00;;;17.18
67822;BMP180;54434;50.096;20.082;2022-09-09T01:53:08;98594.80;;;17.10
67822;BMP180;54434;50.096;20.082;2022-09-09T01:55:55;98599.40;;;17.10
67822;BMP180;54434;50.096;20.082;2022-09-09T01:58:52;98599.60;;;17.10
67822;BMP180;54434;50.096;20.082;2022-09-09T02:01:57;98604.20;;;17.10
67822;BMP180;54434;50.096;20.082;2022-09-09T02:04:44;98606.00;;;17.10
67822;BMP180;54434;50.096;20.082;2022-09-09T02:07:40;98607.00;;;17.10
67822;BMP180;54434;50.096;20.082;2022-09-09T02:10:36;98609.60;;;17.10
67822;BMP180;54434;50.096;20.082;2022-09-09T02:13:24;98611.00;;;17.04
67822;BMP180;54434;50.096;20.082;2022-09-09T02:16:08;98618.80;;;17.06
67822;BMP180;54434;50.096;20.082;2022-09-09T02:18:53;98621.20;;;17.06
67822;BMP180;54434;50.096;20.082;2022-09-09T02:21:39;98621.60;;;17.04
67822;BMP180;54434;50.096;20.082;2022-09-09T02:24:17;98620.60;;;17.00
67822;BMP180;54434;50.096;20.082;2022-09-09T02:27:02;98625.60;;;17.00
67822;BMP180;54434;50.096;20.082;2022-09-09T02:29:44;98620.00;;;17.00
67822;BMP180;54434;50.096;20.082;2022-09-09T02:32:25;98624.40;;;16.98
67822;BMP180;54434;50.096;20.082;2022-09-09T02:35:12;98625.60;;;16.90
67822;BMP180;54434;50.096;20.082;2022-09-09T02:37:53;98625.40;;;16.90
67822;BMP180;54434;50.096;20.082;2022-09-09T02:40:31;98627.60;;;16.90
67822;BMP180;54434;50.096;20.082;2022-09-09T02:43:08;98632.80;;;16.80
67822;BMP180;54434;50.096;20.082;2022-09-09T02:45:56;98633.40;;;16.80
67822;BMP180;54434;50.096;20.082;2022-09-09T02:49:00;98639.40;;;16.70
67822;BMP180;54434;50.096;20.082;2022-09-09T02:51:57;98644.40;;;16.70
67822;BMP180;54434;50.096;20.082;2022-09-09T02:54:38;98645.20;;;16.60
67822;BMP180;54434;50.096;20.082;2022-09-09T02:57:23;98645.80;;;16.60
67822;BMP180;54434;50.096;20.082;2022-09-09T03:00:04;98647.00;;;16.60
67822;BMP180;54434;50.096;20.082;2022-09-09T03:02:41;98646.20;;;16.50
67822;BMP180;54434;50.096;20.082;2022-09-09T03:05:17;98652.80;;;16.50
67822;BMP180;54434;50.096;20.082;2022-09-09T03:07:54;98656.20;;;16.40
67822;BMP180;54434;50.096;20.082;2022-09-09T03:10:30;98657.80;;;16.38
67822;BMP180;54434;50.096;20.082;2022-09-09T03:13:06;98657.40;;;16.30
67822;BMP180;54434;50.096;20.082;2022-09-09T03:15:45;98656.60;;;16.20
67822;BMP180;54434;50.096;20.082;2022-09-09T03:18:22;98656.80;;;16.16
67822;BMP180;54434;50.096;20.082;2022-09-09T03:21:00;98659.00;;;16.10
67822;BMP180;54434;50.096;20.082;2022-09-09T03:23:36;98659.20;;;16.00
67822;BMP180;54434;50.096;20.082;2022-09-09T03:26:13;98659.00;;;16.00
67822;BMP180;54434;50.096;20.082;2022-09-09T03:28:52;98660.60;;;15.90
67822;BMP180;54434;50.096;20.082;2022-09-09T03:31:28;98656.20;;;15.90
67822;BMP180;54434;50.096;20.082;2022-09-09T03:34:06;98653.80;;;15.80
67822;BMP180;54434;50.096;20.082;2022-09-09T03:36:42;98655.80;;;15.80
67822;BMP180;54434;50.096;20.082;2022-09-09T03:39:19;98658.40;;;15.72
67822;BMP180;54434;50.096;20.082;2022-09-09T03:41:55;98656.40;;;15.70
67822;BMP180;54434;50.096;20.082;2022-09-09T03:44:30;98660.00;;;15.70
67822;BMP180;54434;50.096;20.082;2022-09-09T03:47:07;98659.00;;;15.60
67822;BMP180;54434;50.096;20.082;2022-09-09T03:49:44;98666.60;;;15.60
67822;BMP180;54434;50.096;20.082;2022-09-09T03:52:21;98668.80;;;15.60
67822;BMP180;54434;50.096;20.082;2022-09-09T03:54:59;98668.00;;;15.56
67822;BMP180;54434;50.096;20.082;2022-09-09T03:57:36;98670.80;;;15.54
67822;BMP180;54434;50.096;20.082;2022-09-09T04:00:16;98673.60;;;15.50
67822;BMP180;54434;50.096;20.082;2022-09-09T04:02:56;98678.60;;;15.50
67822;BMP180;54434;50.096;20.082;2022-09-09T04:05:32;98675.60;;;15.50
67822;BMP180;54434;50.096;20.082;2022-09-09T04:08:10;98672.80;;;15.46
67822;BMP180;54434;50.096;20.082;2022-09-09T04:10:48;98675.00;;;15.40
67822;BMP180;54434;50.096;20.082;2022-09-09T04:13:25;98678.40;;;15.40
67822;BMP180;54434;50.096;20.082;2022-09-09T04:16:04;98679.80;;;15.40
67822;BMP180;54434;50.096;20.082;2022-09-09T04:18:41;98680.40;;;15.40
67822;BMP180;54434;50.096;20.082;2022-09-09T04:21:17;98679.80;;;15.38
67822;BMP180;54434;50.096;20.082;2022-09-09T04:23:54;98678.40;;;15.32
67822;BMP180;54434;50.096;20.082;2022-09-09T04:26:30;98680.00;;;15.30
67822;BMP180;54434;50.096;20.082;2022-09-09T04:29:07;98678.60;;;15.30
67822;BMP180;54434;50.096;20.082;2022-09-09T04:31:43;98679.40;;;15.30
67822;BMP180;54434;50.096;20.082;2022-09-09T04:34:20;98681.00;;;15.30
67822;BMP180;54434;50.096;20.082;2022-09-09T04:36:56;98678.80;;;15.30
67822;BMP180;54434;50.096;20.082;2022-09-09T04:39:32;98683.40;;;15.30
67822;BMP180;54434;50.096;20.082;2022-09-09T04:42:08;98682.40;;;15.40
67822;BMP180;54434;50.096;20.082;2022-09-09T04:44:44;98679.40;;;15.40
67822;BMP180;54434;50.096;20.082;2022-09-09T04:47:21;98677.80;;;15.42
67822;BMP180;54434;50.096;20.082;2022-09-09T04:49:57;98679.60;;;15.50
67822;BMP180;54434;50.096;20.082;2022-09-09T04:52:35;98674.40;;;15.60
67822;BMP180;54434;50.096;20.082;2022-09-09T04:55:13;98678.40;;;15.72
67822;BMP180;54434;50.096;20.082;2022-09-09T04:57:50;98678.60;;;16.00
67822;BMP180;54434;50.096;20.082;2022-09-09T05:00:26;98680.60;;;16.30
67822;BMP180;54434;50.096;20.082;2022-09-09T05:03:08;98683.60;;;16.50
67822;BMP180;54434;50.096;20.082;2022-09-09T05:05:44;98687.20;;;16.70
67822;BMP180;54434;50.096;20.082;2022-09-09T05:08:20;98687.60;;;16.80
67822;BMP180;54434;50.096;20.082;2022-09-09T05:10:57;98684.40;;;16.84
67822;BMP180;54434;50.096;20.082;2022-09-09T05:13:34;98685.00;;;16.98
67822;BMP180;54434;50.096;20.082;2022-09-09T05:16:15;98691.60;;;17.26
67822;BMP180;54434;50.096;20.082;2022-09-09T05:18:52;98696.80;;;17.44
67822;BMP180;54434;50.096;20.082;2022-09-09T05:21:29;98699.40;;;17.70
67822;BMP180;54434;50.096;20.082;2022-09-09T05:24:06;98702.80;;;18.10
67822;BMP180;54434;50.096;20.082;2022-09-09T05:26:42;98705.80;;;18.34
67822;BMP180;54434;50.096;20.082;2022-09-09T05:29:18;98707.40;;;18.50
67822;BMP180;54434;50.096;20.082;2022-09-09T05:31:54;98707.00;;;18.54
67822;BMP180;54434;50.096;20.082;2022-09-09T05:34:31;98702.00;;;18.70
67822;BMP180;54434;50.096;20.082;2022-09-09T05:37:08;98707.80;;;18.88
67822;BMP180;54434;50.096;20.082;2022-09-09T05:39:44;98710.00;;;19.28
67822;BMP180;54434;50.096;20.082;2022-09-09T05:42:20;98712.80;;;19.62
67822;BMP180;54434;50.096;20.082;2022-09-09T05:44:56;98716.80;;;19.94
67822;BMP180;54434;50.096;20.082;2022-09-09T05:47:33;98710.00;;;20.20
67822;BMP180;54434;50.096;20.082;2022-09-09T05:50:10;98713.60;;;20.50
67822;BMP180;54434;50.096;20.082;2022-09-09T05:52:48;98715.20;;;20.72
67822;BMP180;54434;50.096;20.082;2022-09-09T05:55:24;98714.20;;;20.90
67822;BMP180;54434;50.096;20.082;2022-09-09T05:58:01;98713.20;;;21.00
67822;BMP180;54434;50.096;20.082;2022-09-09T06:00:37;98716.40;;;21.00
67822;BMP180;54434;50.096;20.082;2022-09-09T06:03:14;98720.00;;;20.98
67822;BMP180;54434;50.096;20.082;2022-09-09T06:06:00;98713.80;;;20.80
67822;BMP180;54434;50.096;20.082;2022-09-09T06:08:38;98716.60;;;20.90
67822;BMP180;54434;50.096;20.082;2022-09-09T06:11:17;98722.80;;;21.24
67822;BMP180;54434;50.096;20.082;2022-09-09T06:13:54;98720.40;;;21.70
67822;BMP180;54434;50.096;20.082;2022-09-09T06:16:31;98724.60;;;22.10
67822;BMP180;54434;50.096;20.082;2022-09-09T06:19:08;98729.60;;;22.70
67822;BMP180;54434;50.096;20.082;2022-09-09T06:21:44;98733.20;;;23.20
67822;BMP180;54434;50.096;20.082;2022-09-09T06:24:24;98732.20;;;23.70
67822;BMP180;54434;50.096;20.082;2022-09-09T06:27:00;98736.60;;;24.10
67822;BMP180;54434;50.096;20.082;2022-09-09T06:29:39;98737.00;;;24.50
67822;BMP180;54434;50.096;20.082;2022-09-09T06:32:15;98740.00;;;24.90
67822;BMP180;54434;50.096;20.082;2022-09-09T06:34:52;98742.20;;;25.30
67822;BMP180;54434;50.096;20.082;2022-09-09T06:37:29;98743.40;;;25.54
67822;BMP180;54434;50.096;20.082;2022-09-09T06:40:07;98742.00;;;25.82
67822;BMP180;54434;50.096;20.082;2022-09-09T06:42:43;98744.60;;;26.00
67822;BMP180;54434;50.096;20.082;2022-09-09T06:45:31;98743.40;;;26.24
67822;BMP180;54434;50.096;20.082;2022-09-09T06:48:08;98740.80;;;26.50
67822;BMP180;54434;50.096;20.082;2022-09-09T06:50:44;98743.60;;;26.80
67822;BMP180;54434;50.096;20.082;2022-09-09T06:53:23;98742.40;;;27.08
67822;BMP180;54434;50.096;20.082;2022-09-09T06:56:01;98744.20;;;27.10
67822;BMP180;54434;50.096;20.082;2022-09-09T06:58:38;98744.40;;;27.10
67822;BMP180;54434;50.096;20.082;2022-09-09T07:01:22;98743.20;;;27.10
67822;BMP180;54434;50.096;20.082;2022-09-09T07:04:00;98743.60;;;27.20
67822;BMP180;54434;50.096;20.082;2022-09-09T07:06:42;98738.80;;;27.36
67822;BMP180;54434;50.096;20.082;2022-09-09T07:09:21;98747.40;;;27.40
67822;BMP180;54434;50.096;20.082;2022-09-09T07:11:59;98745.20;;;27.50
67822;BMP180;54434;50.096;20.082;2022-09-09T07:14:37;98745.20;;;27.70
67822;BMP180;54434;50.096;20.082;2022-09-09T07:17:14;98747.20;;;27.88
67822;BMP180;54434;50.096;20.082;2022-09-09T07:19:50;98750.00;;;28.00
67822;BMP180;54434;50.096;20.082;2022-09-09T07:22:28;98756.40;;;28.00
67822;BMP180;54434;50.096;20.082;2022-09-09T07:25:06;98754.60;;;28.14
67822;BMP180;54434;50.096;20.082;2022-09-09T07:27:42;98756.80;;;28.30
67822;BMP180;54434;50.096;20.082;2022-09-09T07:30:21;98758.20;;;28.30
67822;BMP180;54434;50.096;20.082;2022-09-09T07:33:00;98755.20;;;28.30
67822;BMP180;54434;50.096;20.082;2022-09-09T07:35:38;98754.00;;;28.20
67822;BMP180;54434;50.096;20.082;2022-09-09T07:38:15;98755.60;;;28.10
67822;BMP180;54434;50.096;20.082;2022-09-09T07:40:52;98757.00;;;28.10
67822;BMP180;54434;50.096;20.082;2022-09-09T07:43:31;98756.20;;;28.10
67822;BMP180;54434;50.096;20.082;2022-09-09T07:46:16;98757.60;;;28.00
67822;BMP180;54434;50.096;20.082;2022-09-09T07:48:59;98764.60;;;27.80
67822;BMP180;54434;50.096;20.082;2022-09-09T07:51:39;98763.60;;;27.70
67822;BMP180;54434;50.096;20.082;2022-09-09T07:54:19;98768.20;;;27.50
67822;BMP180;54434;50.096;20.082;2022-09-09T07:56:58;98767.40;;;27.50
67822;BMP180;54434;50.096;20.082;2022-09-09T07:59:35;98771.80;;;27.64
67822;BMP180;54434;50.096;20.082;2022-09-09T08:02:13;98768.20;;;27.80
67822;BMP180;54434;50.096;20.082;2022-09-09T08:04:49;98767.20;;;27.90
67822;BMP180;54434;50.096;20.082;2022-09-09T08:07:27;98765.00;;;27.72
67822;BMP180;54434;50.096;20.082;2022-09-09T08:10:04;98769.20;;;27.88
67822;BMP180;54434;50.096;20.082;2022-09-09T08:12:43;98775.20;;;28.00
67822;BMP180;54434;50.096;20.082;2022-09-09T08:15:39;98777.40;;;28.00
67822;BMP180;54434;50.096;20.082;2022-09-09T08:18:16;98775.80;;;28.00
67822;BMP180;54434;50.096;20.082;2022-09-09T08:20:52;98776.60;;;28.10
67822;BMP180;54434;50.096;20.082;2022-09-09T08:23:28;98775.60;;;28.10
67822;BMP180;54434;50.096;20.082;2022-09-09T08:26:14;98775.80;;;28.10
67822;BMP180;54434;50.096;20.082;2022-09-09T08:28:52;98780.60;;;28.10
67822;BMP180;54434;50.096;20.082;2022-09-09T08:31:35;98783.80;;;28.20
67822;BMP180;54434;50.096;20.082;2022-09-09T08:34:14;98785.40;;;28.20
67822;BMP180;54434;50.096;20.082;2022-09-09T08:36:52;98786.60;;;28.30
67822;BMP180;54434;50.096;20.082;2022-09-09T08:39:32;98788.80;;;28.30
67822;BMP180;54434;50.096;20.082;2022-09-09T08:42:33;98780.60;;;28.10
67822;BMP180;54434;50.096;20.082;2022-09-09T08:45:37;98785.00;;;28.10
67822;BMP180;54434;50.096;20.082;2022-09-09T08:48:42;98785.40;;;28.20
67822;BMP180;54434;50.096;20.082;2022-09-09T08:51:20;98796.20;;;28.22
67822;BMP180;54434;50.096;20.082;2022-09-09T08:54:00;98798.40;;;28.20
67822;BMP180;54434;50.096;20.082;2022-09-09T08:56:38;98795.00;;;28.20
67822;BMP180;54434;50.096;20.082;2022-09-09T08:59:18;98798.20;;;28.26
67822;BMP180;54434;50.096;20.082;2022-09-09T09:02:16;98791.60;;;28.22
67822;BMP180;54434;50.096;20.082;2022-09-09T09:05:17;98792.60;;;27.76
67822;BMP180;54434;50.096;20.082;2022-09-09T09:08:12;98798.00;;;27.06
67822;BMP180;54434;50.096;20.082;2022-09-09T09:10:56;98797.60;;;26.58
67822;BMP180;54434;50.096;20.082;2022-09-09T09:13:47;98797.60;;;26.36
67822;BMP180;54434;50.096;20.082;2022-09-09T09:16:33;98797.00;;;26.10
67822;BMP180;54434;50.096;20.082;2022-09-09T09:19:16;98792.20;;;26.08
67822;BMP180;54434;50.096;20.082;2022-09-09T09:22:01;98798.60;;;26.10
67822;BMP180;54434;50.096;20.082;2022-09-09T09:24:52;98802.40;;;25.82
67822;BMP180;54434;50.096;20.082;2022-09-09T09:27:39;98796.80;;;25.50
67822;BMP180;54434;50.096;20.082;2022-09-09T09:30:22;98797.00;;;25.40
67822;BMP180;54434;50.096;20.082;2022-09-09T09:33:18;98795.00;;;25.36
67822;BMP180;54434;50.096;20.082;2022-09-09T09:35:57;98799.00;;;25.10
67822;BMP180;54434;50.096;20.082;2022-09-09T09:38:35;98804.40;;;25.06
67822;BMP180;54434;50.096;20.082;2022-09-09T09:41:40;98795.00;;;25.00
67822;BMP180;54434;50.096;20.082;2022-09-09T09:44:30;98791.80;;;25.00
67822;BMP180;54434;50.096;20.082;2022-09-09T09:47:16;98795.60;;;25.00
67822;BMP180;54434;50.096;20.082;2022-09-09T09:50:01;98796.80;;;24.96
67822;BMP180;54434;50.096;20.082;2022-09-09T09:52:55;98793.00;;;24.70
67822;BMP180;54434;50.096;20.082;2022-09-09T09:55:34;98789.00;;;24.42
67822;BMP180;54434;50.096;20.082;2022-09-09T09:58:18;98786.80;;;24.36
67822;BMP180;54434;50.096;20.082;2022-09-09T10:00:55;98785.80;;;24.30
67822;BMP180;54434;50.096;20.082;2022-09-09T10:03:36;98788.00;;;24.20
67822;BMP180;54434;50.096;20.082;2022-09-09T10:06:14;98782.00;;;24.10
67822;BMP180;54434;50.096;20.082;2022-09-09T10:08:51;98788.60;;;24.20
67822;BMP180;54434;50.096;20.082;2022-09-09T10:11:54;98785.80;;;24.20
67822;BMP180;54434;50.096;20.082;2022-09-09T10:14:40;98783.40;;;24.30
67822;BMP180;54434;50.096;20.082;2022-09-09T10:17:32;98779.40;;;24.44
67822;BMP180;54434;50.096;20.082;2022-09-09T10:20:34;98781.40;;;24.70
67822;BMP180;54434;50.096;20.082;2022-09-09T10:23:42;98771.20;;;24.80
67822;BMP180;54434;50.096;20.082;2022-09-09T10:26:38;98766.80;;;24.76
67822;BMP180;54434;50.096;20.082;2022-09-09T10:29:37;98771.00;;;24.90
67822;BMP180;54434;50.096;20.082;2022-09-09T10:32:42;98779.60;;;25.10
67822;BMP180;54434;50.096;20.082;2022-09-09T10:35:31;98787.60;;;25.00
67822;BMP180;54434;50.096;20.082;2022-09-09T10:38:22;98786.20;;;25.10
67822;BMP180;54434;50.096;20.082;2022-09-09T10:41:15;98784.40;;;25.20
67822;BMP180;54434;50.096;20.082;2022-09-09T10:44:22;98785.20;;;25.20
67822;BMP180;54434;50.096;20.082;2022-09-09T10:47:36;98788.20;;;25.32
67822;BMP180;54434;50.096;20.082;2022-09-09T10:50:45;98784.20;;;25.38
67822;BMP180;54434;50.096;20.082;2022-09-09T10:53:56;98795.00;;;25.30
67822;BMP180;54434;50.096;20.082;2022-09-09T10:56:34;98790.80;;;25.30
67822;BMP180;54434;50.096;20.082;2022-09-09T10:59:18;98783.80;;;25.32
67822;BMP180;54434;50.096;20.082;2022-09-09T11:02:03;98781.20;;;25.30
67822;BMP180;54434;50.096;20.082;2022-09-09T11:04:47;98774.80;;;25.20
67822;BMP180;54434;50.096;20.082;2022-09-09T11:07:30;98773.20;;;25.20
67822;BMP180;54434;50.096;20.082;2022-09-09T11:10:23;98777.80;;;25.20
67822;BMP180;54434;50.096;20.082;2022-09-09T11:13:08;98782.20;;;25.30
67822;BMP180;54434;50.096;20.082;2022-09-09T11:15:51;98784.00;;;25.30
67822;BMP180;54434;50.096;20.082;2022-09-09T11:18:33;98785.60;;;25.30
67822;BMP180;54434;50.096;20.082;2022-09-09T11:21:21;98789.00;;;25.20
67822;BMP180;54434;50.096;20.082;2022-09-09T11:24:06;98789.20;;;25.20
67822;BMP180;54434;50.096;20.082;2022-09-09T11:26:54;98789.20;;;25.10
67822;BMP180;54434;50.096;20.082;2022-09-09T11:30:00;98784.80;;;25.08
67822;BMP180;54434;50.096;20.082;2022-09-09T11:33:09;98780.00;;;25.10
67822;BMP180;54434;50.096;20.082;2022-09-09T11:39:22;98777.80;;;25.16
67822;BMP180;54434;50.096;20.082;2022-09-09T11:42:20;98779.60;;;25.10
67822;BMP180;54434;50.096;20.082;2022-09-09T11:44:56;98781.00;;;25.20
67822;BMP180;54434;50.096;20.082;2022-09-09T11:47:34;98775.40;;;25.20
67822;BMP180;54434;50.096;20.082;2022-09-09T11:50:37;98772.80;;;25.28
67822;BMP180;54434;50.096;20.082;2022-09-09T11:53:25;98776.60;;;25.20
67822;BMP180;54434;50.096;20.082;2022-09-09T11:56:25;98776.00;;;25.20
67822;BMP180;54434;50.096;20.082;2022-09-09T11:59:06;98780.80;;;25.10
67822;BMP180;54434;50.096;20.082;2022-09-09T12:01:58;98779.20;;;25.00
67822;BMP180;54434;50.096;20.082;2022-09-09T12:04:40;98777.00;;;24.90
67822;BMP180;54434;50.096;20.082;2022-09-09T12:07:38;98771.60;;;24.70
67822;BMP180;54434;50.096;20.082;2022-09-09T12:10:30;98775.80;;;24.60
67822;BMP180;54434;50.096;20.082;2022-09-09T12:13:22;98774.00;;;24.52
67822;BMP180;54434;50.096;20.082;2022-09-09T12:16:01;98776.20;;;24.50
67822;BMP180;54434;50.096;20.082;2022-09-09T12:18:43;98782.80;;;24.40
67822;BMP180;54434;50.096;20.082;2022-09-09T12:21:36;98786.80;;;24.30
67822;BMP180;54434;50.096;20.082;2022-09-09T12:24:25;98782.80;;;24.20
67822;BMP180;54434;50.096;20.082;2022-09-09T12:27:17;98777.40;;;24.20
67822;BMP180;54434;50.096;20.082;2022-09-09T12:30:03;98774.40;;;24.20
67822;BMP180;54434;50.096;20.082;2022-09-09T12:32:40;98777.80;;;24.20
67822;BMP180;54434;50.096;20.082;2022-09-09T12:35:24;98782.20;;;24.10
67822;BMP180;54434;50.096;20.082;2022-09-09T12:38:06;98782.20;;;24.10
67822;BMP180;54434;50.096;20.082;2022-09-09T12:40:57;98782.40;;;24.00
67822;BMP180;54434;50.096;20.082;2022-09-09T12:43:33;98780.00;;;24.00
67822;BMP180;54434;50.096;20.082;2022-09-09T12:46:25;98782.60;;;24.00
67822;BMP180;54434;50.096;20.082;2022-09-09T12:49:05;98778.00;;;24.06
67822;BMP180;54434;50.096;20.082;2022-09-09T12:51:55;98780.00;;;24.00
67822;BMP180;54434;50.096;20.082;2022-09-09T12:54:34;98778.40;;;24.00
67822;BMP180;54434;50.096;20.082;2022-09-09T12:57:15;98775.00;;;24.00
67822;BMP180;54434;50.096;20.082;2022-09-09T12:59:51;98771.00;;;24.00
67822;BMP180;54434;50.096;20.082;2022-09-09T13:02:29;98776.20;;;23.90
67822;BMP180;54434;50.096;20.082;2022-09-09T13:05:22;98780.80;;;23.80
67822;BMP180;54434;50.096;20.082;2022-09-09T13:08:08;98784.00;;;23.80
67822;BMP180;54434;50.096;20.082;2022-09-09T13:10:52;98782.00;;;23.80
67822;BMP180;54434;50.096;20.082;2022-09-09T13:13:41;98773.80;;;23.80
67822;BMP180;54434;50.096;20.082;2022-09-09T13:16:28;98771.60;;;23.72
67822;BMP180;54434;50.096;20.082;2022-09-09T13:19:16;98767.20;;;23.80
67822;BMP180;54434;50.096;20.082;2022-09-09T13:21:52;98773.00;;;23.80
67822;BMP180;54434;50.096;20.082;2022-09-09T13:24:34;98763.20;;;23.90
67822;BMP180;54434;50.096;20.082;2022-09-09T13:27:31;98759.00;;;24.00
67822;BMP180;54434;50.096;20.082;2022-09-09T13:30:29;98764.20;;;24.10
67822;BMP180;54434;50.096;20.082;2022-09-09T13:33:22;98757.60;;;24.18
67822;BMP180;54434;50.096;20.082;2022-09-09T13:36:02;98750.40;;;24.20
67822;BMP180;54434;50.096;20.082;2022-09-09T13:38:54;98753.20;;;24.20
67822;BMP180;54434;50.096;20.082;2022-09-09T13:41:34;98756.20;;;24.20
67822;BMP180;54434;50.096;20.082;2022-09-09T13:44:22;98755.40;;;24.20
67822;BMP180;54434;50.096;20.082;2022-09-09T13:47:19;98757.20;;;24.20
67822;BMP180;54434;50.096;20.082;2022-09-09T13:49:55;98747.80;;;24.20
67822;BMP180;54434;50.096;20.082;2022-09-09T13:52:32;98744.40;;;24.28
67822;BMP180;54434;50.096;20.082;2022-09-09T13:55:11;98741.60;;;24.30
67822;BMP180;54434;50.096;20.082;2022-09-09T13:57:57;98745.60;;;24.30
67822;BMP180;54434;50.096;20.082;2022-09-09T14:00:36;98743.60;;;24.30
67822;BMP180;54434;50.096;20.082;2022-09-09T14:03:12;98741.00;;;24.28
67822;BMP180;54434;50.096;20.082;2022-09-09T14:05:49;98741.20;;;24.26
67822;BMP180;54434;50.096;20.082;2022-09-09T14:08:30;98745.00;;;24.22
67822;BMP180;54434;50.096;20.082;2022-09-09T14:11:14;98743.20;;;24.20
67822;BMP180;54434;50.096;20.082;2022-09-09T14:13:50;98740.20;;;24.20
67822;BMP180;54434;50.096;20.082;2022-09-09T14:16:26;98742.60;;;24.22
67822;BMP180;54434;50.096;20.082;2022-09-09T14:19:03;98740.40;;;24.30
67822;BMP180;54434;50.096;20.082;2022-09-09T14:21:39;98737.80;;;24.30
67822;BMP180;54434;50.096;20.082;2022-09-09T14:24:15;98737.20;;;24.30
67822;BMP180;54434;50.096;20.082;2022-09-09T14:26:52;98740.80;;;24.20
67822;BMP180;54434;50.096;20.082;2022-09-09T14:29:28;98736.80;;;24.20
67822;BMP180;54434;50.096;20.082;2022-09-09T14:32:05;98737.00;;;24.10
67822;BMP180;54434;50.096;20.082;2022-09-09T14:34:46;98735.00;;;24.10
67822;BMP180;54434;50.096;20.082;2022-09-09T14:37:24;98737.20;;;24.10
67822;BMP180;54434;50.096;20.082;2022-09-09T14:40:01;98732.40;;;24.00
67822;BMP180;54434;50.096;20.082;2022-09-09T14:42:37;98727.20;;;24.00
67822;BMP180;54434;50.096;20.082;2022-09-09T14:45:16;98723.60;;;23.90
67822;BMP180;54434;50.096;20.082;2022-09-09T14:47:52;98720.60;;;23.90
67822;BMP180;54434;50.096;20.082;2022-09-09T14:50:28;98722.60;;;23.90
67822;BMP180;54434;50.096;20.082;2022-09-09T14:53:04;98719.40;;;23.90
67822;BMP180;54434;50.096;20.082;2022-09-09T14:55:41;98717.00;;;23.86
67822;BMP180;54434;50.096;20.082;2022-09-09T14:58:17;98716.80;;;23.80
67822;BMP180;54434;50.096;20.082;2022-09-09T15:00:54;98710.20;;;23.80
67822;BMP180;54434;50.096;20.082;2022-09-09T15:03:31;98711.40;;;23.80
67822;BMP180;54434;50.096;20.082;2022-09-09T15:06:13;98713.80;;;23.70
67822;BMP180;54434;50.096;20.082;2022-09-09T15:08:52;98709.60;;;23.66
67822;BMP180;54434;50.096;20.082;2022-09-09T15:11:30;98706.80;;;23.60
67822;BMP180;54434;50.096;20.082;2022-09-09T15:14:07;98706.60;;;23.50
67822;BMP180;54434;50.096;20.082;2022-09-09T15:16:43;98707.80;;;23.50
67822;BMP180;54434;50.096;20.082;2022-09-09T15:19:20;98710.20;;;23.40
67822;BMP180;54434;50.096;20.082;2022-09-09T15:21:55;98711.40;;;23.40
67822;BMP180;54434;50.096;20.082;2022-09-09T15:24:31;98710.20;;;23.30
67822;BMP180;54434;50.096;20.082;2022-09-09T15:27:07;98711.20;;;23.30
67822;BMP180;54434;50.096;20.082;2022-09-09T15:29:44;98707.40;;;23.20